Time;durP1;ratioP1;P1;durP2;ratioP2;P2;SDS_P1;SDS_P2;PMS_P1;PMS_P2;Temp;Humidity;BMP_temperature;BMP_pressure;BME280_temperature;BME280_humidity;BME280_pressure;Samples;Min_cycle;Max_cycle;Signal;HPM_P1;HPM_P2
2024/01/24 00:00:34;;;;;;;2.85;0.60;;;;;;;7.67;100.00;98087.66;5036044;28;20042;-59
2024/01/24 00:03:01;;;;;;;3.58;0.82;;;;;;;7.64;100.00;98083.53;5026112;28;20041;-58
2024/01/24 00:05:28;;;;;;;4.03;0.80;;;;;;;7.69;100.00;98069.38;5036284;28;20037;-59
2024/01/24 00:07:54;;;;;;;5.88;0.88;;;;;;;7.70;100.00;98065.63;5037611;28;20069;-59
2024/01/24 00:10:23;;;;;;;4.07;1.08;;;;;;;7.59;100.00;98067.16;5048283;28;20071;-59
2024/01/24 00:12:49;;;;;;;3.63;0.95;;;;;;;7.61;100.00;98064.25;5036117;28;20044;-59
2024/01/24 00:15:16;;;;;;;5.18;1.00;;;;;;;7.65;100.00;98063.59;5037710;28;20151;-59
2024/01/24 00:17:42;;;;;;;6.30;0.88;;;;;;;7.68;100.00;98048.88;5032081;28;20455;-59
2024/01/24 00:20:12;;;;;;;5.30;1.13;;;;;;;7.68;100.00;98043.47;5043026;28;20085;-59
2024/01/24 00:22:38;;;;;;;2.33;0.73;;;;;;;7.66;100.00;98046.38;5037285;28;20041;-58
2024/01/24 00:25:05;;;;;;;4.53;0.90;;;;;;;7.83;100.00;98043.19;5037710;28;20034;-59
2024/01/24 00:27:32;;;;;;;6.05;1.23;;;;;;;7.84;100.00;98047.53;5038648;28;20052;-59
2024/01/24 00:29:59;;;;;;;5.20;0.85;;;;;;;7.85;100.00;98024.09;5028949;28;20423;-58
2024/01/24 00:32:25;;;;;;;5.05;1.20;;;;;;;7.84;100.00;98019.72;5029625;28;20132;-59
2024/01/24 00:34:52;;;;;;;4.93;1.05;;;;;;;7.83;100.00;98013.53;5035926;28;20528;-58
2024/01/24 00:37:18;;;;;;;4.28;0.82;;;;;;;7.80;100.00;98008.56;5038590;28;20052;-59
2024/01/24 00:39:47;;;;;;;3.70;0.98;;;;;;;7.88;100.00;98020.94;5035407;28;20423;-59
2024/01/24 00:42:13;;;;;;;5.38;1.00;;;;;;;7.88;100.00;98016.38;5043126;28;20120;-59
2024/01/24 00:44:42;;;;;;;5.78;1.10;;;;;;;7.86;100.00;98017.66;5040694;28;20053;-59
2024/01/24 00:47:08;;;;;;;6.30;0.95;;;;;;;7.86;100.00;98028.44;5031576;28;20041;-59
2024/01/24 00:49:35;;;;;;;5.93;0.82;;;;;;;7.91;100.00;98015.13;5039146;28;20716;-59
2024/01/24 00:52:03;;;;;;;2.42;0.65;;;;;;;7.91;100.00;98024.03;5042323;28;20041;-59
2024/01/24 00:54:30;;;;;;;6.35;1.00;;;;;;;7.98;100.00;98015.91;5043121;28;20048;-59
2024/01/24 00:56:56;;;;;;;3.00;0.68;;;;;;;7.98;100.00;98023.16;5029771;28;20075;-57
2024/01/24 00:59:23;;;;;;;5.95;1.05;;;;;;;7.91;100.00;98010.56;5041593;28;20647;-59
2024/01/24 01:01:49;;;;;;;2.97;1.00;;;;;;;7.91;100.00;98026.75;5043831;28;20671;-59
2024/01/24 01:04:16;;;;;;;3.80;0.80;;;;;;;7.99;100.00;98006.75;5043784;28;20475;-58
2024/01/24 01:06:43;;;;;;;5.45;0.88;;;;;;;8.12;100.00;98016.63;5045004;28;20090;-59
2024/01/24 01:09:10;;;;;;;5.13;1.10;;;;;;;8.13;100.00;98007.47;5033726;28;20044;-58
2024/01/24 01:11:37;;;;;;;5.30;0.90;;;;;;;8.05;100.00;98005.06;5036767;28;20545;-59
2024/01/24 01:14:04;;;;;;;3.85;0.70;;;;;;;7.97;100.00;97995.38;5035314;28;20052;-59
2024/01/24 01:16:31;;;;;;;5.90;1.50;;;;;;;7.94;100.00;97991.25;5038367;28;20140;-59
2024/01/24 01:18:57;;;;;;;3.72;0.70;;;;;;;7.99;100.00;97978.97;5049379;28;20703;-59
2024/01/24 01:21:24;;;;;;;5.53;1.00;;;;;;;8.00;100.00;97973.34;5048686;28;20095;-59
2024/01/24 01:23:51;;;;;;;4.25;1.25;;;;;;;7.96;100.00;97971.31;5049745;28;20042;-59
2024/01/24 01:26:17;;;;;;;5.30;1.10;;;;;;;7.98;100.00;97972.75;5038195;28;20055;-59
2024/01/24 01:28:44;;;;;;;3.85;1.58;;;;;;;8.12;100.00;97984.25;5037353;28;20764;-58
2024/01/24 01:31:10;;;;;;;3.72;0.98;;;;;;;8.09;100.00;97976.59;5045068;28;20037;-59
2024/01/24 01:33:36;;;;;;;6.53;0.90;;;;;;;8.16;100.00;97973.84;5051983;28;20524;-58
2024/01/24 01:36:04;;;;;;;5.15;0.70;;;;;;;8.04;100.00;97973.75;5044447;28;20047;-59
2024/01/24 01:38:43;;;;;;;3.38;0.73;;;;;;;8.14;100.00;97973.25;5040280;28;20048;-59
2024/01/24 01:41:10;;;;;;;5.05;0.82;;;;;;;8.06;100.00;97969.78;5049245;28;20048;-59
2024/01/24 01:43:37;;;;;;;5.93;0.85;;;;;;;8.10;100.00;97970.16;5030387;28;20115;-59
2024/01/24 01:46:10;;;;;;;3.10;0.75;;;;;;;8.04;100.00;97962.97;5047963;28;20051;-59
2024/01/24 01:48:38;;;;;;;6.45;1.33;;;;;;;8.16;100.00;97971.16;5040882;28;20076;-59
2024/01/24 01:51:06;;;;;;;5.47;1.40;;;;;;;8.21;100.00;97979.41;5048619;28;20454;-57
2024/01/24 01:53:38;;;;;;;6.50;1.00;;;;;;;8.25;100.00;97983.31;5051563;28;20037;-59
2024/01/24 01:56:09;;;;;;;3.33;0.90;;;;;;;8.32;100.00;97991.34;5035765;28;20493;-59
2024/01/24 01:58:37;;;;;;;2.97;0.60;;;;;;;8.38;100.00;97990.47;5039069;28;20052;-58
2024/01/24 02:01:05;;;;;;;3.05;0.70;;;;;;;8.45;100.00;97988.50;5047726;28;21446;-58
2024/01/24 02:03:37;;;;;;;2.08;0.60;;;;;;;8.46;100.00;97986.63;5036647;28;20068;-58
2024/01/24 02:06:04;;;;;;;4.13;0.88;;;;;;;8.31;100.00;97963.53;5033047;28;20254;-57
2024/01/24 02:08:37;;;;;;;3.50;0.60;;;;;;;8.25;100.00;97963.59;5032173;28;20069;-59
2024/01/24 02:11:04;;;;;;;4.88;0.70;;;;;;;8.31;100.00;97954.63;5037145;28;20668;-59
2024/01/24 02:13:31;;;;;;;2.63;0.77;;;;;;;8.22;100.00;97945.16;5034721;28;20049;-58
2024/01/24 02:16:09;;;;;;;2.85;0.75;;;;;;;8.22;100.00;97955.94;5043599;28;20521;-59
2024/01/24 02:18:35;;;;;;;4.78;1.05;;;;;;;8.12;100.00;97957.28;5041444;28;20079;-59
2024/01/24 02:21:02;;;;;;;5.78;0.80;;;;;;;8.13;100.00;97950.00;5036829;28;20056;-59
2024/01/24 02:23:30;;;;;;;4.88;0.95;;;;;;;8.09;100.00;97948.78;5045232;28;20071;-58
2024/01/24 02:25:57;;;;;;;2.25;0.65;;;;;;;8.07;100.00;97951.72;5035001;28;20049;-58
2024/01/24 02:28:24;;;;;;;5.55;0.90;;;;;;;8.08;100.00;97956.09;5035931;28;20076;-59
2024/01/24 02:30:51;;;;;;;3.63;0.77;;;;;;;8.04;100.00;97946.78;5033061;28;20685;-59
2024/01/24 02:33:17;;;;;;;4.07;0.88;;;;;;;7.97;100.00;97937.91;5035863;28;20041;-59
2024/01/24 02:35:44;;;;;;;3.10;0.88;;;;;;;7.87;100.00;97931.16;5036821;28;20446;-59
2024/01/24 02:38:10;;;;;;;3.60;0.73;;;;;;;7.86;100.00;97928.69;5036751;28;20094;-58
2024/01/24 02:40:37;;;;;;;4.40;1.10;;;;;;;7.76;100.00;97921.91;5038345;28;20501;-59
2024/01/24 02:43:04;;;;;;;2.33;0.63;;;;;;;7.64;100.00;97926.34;5031850;28;20698;-59
2024/01/24 02:45:31;;;;;;;7.38;1.20;;;;;;;7.49;100.00;97923.97;5029264;28;20041;-59
2024/01/24 02:47:57;;;;;;;2.55;0.75;;;;;;;7.31;100.00;97924.72;5038342;28;20040;-59
2024/01/24 02:50:24;;;;;;;3.03;0.73;;;;;;;7.19;100.00;97919.22;5034710;28;20519;-58
2024/01/24 02:52:50;;;;;;;4.03;0.73;;;;;;;7.09;100.00;97907.03;5032493;28;20052;-59
2024/01/24 02:55:17;;;;;;;5.68;0.80;;;;;;;7.03;100.00;97910.59;5031777;28;20037;-59
2024/01/24 02:57:44;;;;;;;4.22;0.80;;;;;;;6.85;100.00;97913.97;5034786;28;20041;-59
2024/01/24 03:00:12;;;;;;;2.60;0.65;;;;;;;6.69;100.00;97920.69;5039830;28;20036;-58
2024/01/24 03:02:39;;;;;;;3.88;0.52;;;;;;;6.56;100.00;97917.00;5041229;28;20055;-59
2024/01/24 03:05:08;;;;;;;4.85;0.60;;;;;;;6.41;100.00;97909.19;5036326;28;20041;-59
2024/01/24 03:07:36;;;;;;;3.20;0.55;;;;;;;6.29;100.00;97925.16;5035588;28;20444;-59
2024/01/24 03:10:04;;;;;;;3.80;0.98;;;;;;;6.16;100.00;97925.19;5029098;28;20571;-58
2024/01/24 03:12:31;;;;;;;2.88;0.90;;;;;;;6.13;100.00;97930.97;5033425;28;20055;-59
2024/01/24 03:14:57;;;;;;;4.35;1.00;;;;;;;6.08;100.00;97926.25;5041159;28;20447;-58
2024/01/24 03:17:24;;;;;;;4.55;0.80;;;;;;;6.06;100.00;97922.91;5036528;28;20060;-59
2024/01/24 03:19:51;;;;;;;4.43;1.00;;;;;;;6.04;100.00;97919.63;5045376;28;20543;-58
2024/01/24 03:22:18;;;;;;;3.30;0.60;;;;;;;6.01;100.00;97915.44;5028254;28;20042;-58
2024/01/24 03:24:44;;;;;;;2.10;0.73;;;;;;;5.97;100.00;97925.78;5040220;28;20117;-58
2024/01/24 03:27:11;;;;;;;3.80;0.70;;;;;;;5.92;100.00;97922.91;5033296;28;20044;-59
2024/01/24 03:29:40;;;;;;;2.47;0.55;;;;;;;5.88;100.00;97910.91;5043188;28;20045;-59
2024/01/24 03:32:07;;;;;;;4.97;0.77;;;;;;;5.86;100.00;97923.72;5040967;28;20037;-58
2024/01/24 03:34:33;;;;;;;5.45;0.65;;;;;;;5.83;100.00;97924.97;5044320;28;20052;-59
2024/01/24 03:37:00;;;;;;;3.15;0.65;;;;;;;5.80;100.00;97919.19;5040330;28;20651;-58
2024/01/24 03:39:28;;;;;;;4.25;0.82;;;;;;;5.81;100.00;97927.03;5039045;28;20040;-58
2024/01/24 03:41:54;;;;;;;2.80;0.90;;;;;;;5.87;100.00;97925.41;5046143;28;20072;-57
2024/01/24 03:44:21;;;;;;;3.00;0.82;;;;;;;5.94;100.00;97925.38;5038010;28;20046;-58
2024/01/24 03:46:47;;;;;;;2.85;0.75;;;;;;;5.95;100.00;97925.19;5038602;28;20040;-59
2024/01/24 03:49:14;;;;;;;2.97;0.82;;;;;;;5.96;100.00;97907.19;5036246;28;20055;-59
2024/01/24 03:51:41;;;;;;;1.33;0.55;;;;;;;5.98;100.00;97897.88;5042560;28;20100;-60
2024/01/24 03:54:08;;;;;;;4.28;0.70;;;;;;;6.02;100.00;97914.41;5046989;28;20580;-60
2024/01/24 03:56:34;;;;;;;3.35;0.80;;;;;;;6.05;100.00;97914.00;5042443;28;20041;-60
2024/01/24 03:59:01;;;;;;;2.78;0.70;;;;;;;6.08;100.00;97905.53;5050985;28;20044;-60
2024/01/24 04:01:27;;;;;;;3.80;0.60;;;;;;;6.13;100.00;97912.16;5049899;28;20055;-60
2024/01/24 04:03:54;;;;;;;3.13;0.90;;;;;;;6.11;100.00;97912.34;5036688;28;20115;-60
2024/01/24 04:06:21;;;;;;;3.03;0.93;;;;;;;6.14;100.00;97924.56;5039562;28;20040;-59
2024/01/24 04:08:48;;;;;;;5.22;0.88;;;;;;;6.18;100.00;97905.09;5038948;28;20539;-60
2024/01/24 04:11:14;;;;;;;5.45;1.05;;;;;;;6.20;100.00;97907.59;5040039;28;20582;-60
2024/01/24 04:13:42;;;;;;;5.20;0.98;;;;;;;6.58;100.00;97904.16;5051392;28;20058;-59
2024/01/24 04:16:09;;;;;;;3.47;0.98;;;;;;;6.95;100.00;97910.84;5035969;28;20495;-60
2024/01/24 04:18:35;;;;;;;3.40;0.80;;;;;;;7.34;100.00;97924.28;5035014;28;20119;-59
2024/01/24 04:21:02;;;;;;;2.90;1.00;;;;;;;8.41;100.00;97925.22;5046433;28;20052;-60
2024/01/24 04:23:29;;;;;;;2.08;0.75;;;;;;;9.10;100.00;97912.59;5038997;28;20047;-60
2024/01/24 04:25:55;;;;;;;2.97;0.75;;;;;;;9.58;100.00;97912.75;5037422;28;20041;-60
2024/01/24 04:28:22;;;;;;;2.65;0.80;;;;;;;9.81;100.00;97922.78;5043331;28;20049;-59
2024/01/24 04:30:48;;;;;;;4.53;0.93;;;;;;;10.04;100.00;97915.75;5041547;28;20040;-60
2024/01/24 04:33:15;;;;;;;3.97;1.20;;;;;;;10.09;100.00;97915.00;5029833;28;20045;-60
2024/01/24 04:35:41;;;;;;;3.17;0.90;;;;;;;10.24;100.00;97923.50;5041834;28;20058;-58
2024/01/24 04:38:08;;;;;;;2.42;0.85;;;;;;;10.46;100.00;97935.66;5046355;28;20046;-60
2024/01/24 04:40:34;;;;;;;3.70;0.80;;;;;;;10.54;100.00;97935.25;5038095;28;20409;-60
2024/01/24 04:43:01;;;;;;;0.93;0.50;;;;;;;10.60;100.00;97939.75;5033504;28;20037;-60
2024/01/24 04:45:28;;;;;;;2.15;0.88;;;;;;;10.69;100.00;97936.66;5046292;28;20443;-58
2024/01/24 04:47:54;;;;;;;5.80;0.95;;;;;;;10.75;100.00;97927.56;5051500;28;20045;-60
2024/01/24 04:50:21;;;;;;;3.60;0.73;;;;;;;10.80;100.00;97938.53;5035600;28;20051;-60
2024/01/24 04:52:48;;;;;;;2.85;0.70;;;;;;;10.79;100.00;97936.88;5059391;28;20041;-60
2024/01/24 04:55:15;;;;;;;2.58;0.55;;;;;;;10.75;100.00;97933.81;5039387;28;20037;-60
2024/01/24 04:57:42;;;;;;;3.00;0.68;;;;;;;10.80;100.00;97931.22;5050143;28;20044;-60
2024/01/24 05:00:10;;;;;;;2.35;0.98;;;;;;;10.76;100.00;97956.31;5035051;28;20068;-60
2024/01/24 05:02:39;;;;;;;2.50;0.68;;;;;;;10.84;100.00;97947.00;5047814;28;20051;-60
2024/01/24 05:05:06;;;;;;;2.38;0.85;;;;;;;10.86;100.00;97934.00;5048247;28;20094;-60
2024/01/24 05:07:34;;;;;;;2.20;0.60;;;;;;;10.82;100.00;97933.69;5036289;28;20522;-59
2024/01/24 05:10:03;;;;;;;2.25;0.90;;;;;;;10.80;100.00;97922.28;5051676;28;20041;-58
2024/01/24 05:12:30;;;;;;;3.13;0.90;;;;;;;10.73;100.00;97913.47;5033230;28;20045;-59
2024/01/24 05:14:57;;;;;;;3.35;0.93;;;;;;;10.66;100.00;97919.81;5039537;28;20055;-60
2024/01/24 05:17:24;;;;;;;3.50;0.70;;;;;;;10.79;100.00;97940.41;5038029;28;20072;-60
2024/01/24 05:19:50;;;;;;;3.65;0.82;;;;;;;10.80;100.00;97946.66;5042195;28;20045;-60
2024/01/24 05:22:17;;;;;;;2.83;0.93;;;;;;;10.85;100.00;97937.78;5048575;28;20041;-60
2024/01/24 05:24:45;;;;;;;1.98;0.52;;;;;;;10.88;100.00;97950.88;5050864;28;20124;-60
2024/01/24 05:27:12;;;;;;;1.65;0.68;;;;;;;10.90;100.00;97935.19;5048676;28;20044;-59
2024/01/24 05:29:39;;;;;;;2.55;0.63;;;;;;;10.86;100.00;97942.13;5047700;28;20495;-60
2024/01/24 05:32:06;;;;;;;8.13;0.73;;;;;;;10.78;100.00;97937.94;5041308;28;20048;-59
2024/01/24 05:34:32;;;;;;;2.42;0.68;;;;;;;10.86;100.00;97925.88;5053030;28;20049;-60
2024/01/24 05:36:59;;;;;;;1.50;0.70;;;;;;;10.90;100.00;97906.22;5039323;28;20091;-60
2024/01/24 05:39:26;;;;;;;1.45;0.73;;;;;;;11.01;100.00;97925.38;5052099;28;20048;-60
2024/01/24 05:41:52;;;;;;;1.85;0.50;;;;;;;11.03;100.00;97939.50;5056911;28;20058;-60
2024/01/24 05:44:20;;;;;;;0.77;0.30;;;;;;;11.05;100.00;97948.22;5039591;28;20041;-57
2024/01/24 05:46:46;;;;;;;2.97;0.70;;;;;;;11.10;100.00;97917.69;5042808;28;20555;-60
2024/01/24 05:49:13;;;;;;;1.30;0.50;;;;;;;11.05;100.00;97918.41;5041002;28;20111;-60
2024/01/24 05:51:39;;;;;;;1.00;0.43;;;;;;;11.01;100.00;97906.41;5048119;28;20036;-58
2024/01/24 05:54:06;;;;;;;1.38;0.45;;;;;;;10.97;100.00;97887.09;5059367;28;20040;-60
2024/01/24 05:56:32;;;;;;;0.50;0.40;;;;;;;11.00;100.00;97888.50;5050796;28;20118;-59
2024/01/24 05:58:59;;;;;;;1.33;0.40;;;;;;;11.19;100.00;97886.41;5052485;28;20644;-60
2024/01/24 06:01:25;;;;;;;1.83;0.43;;;;;;;11.10;100.00;97880.59;5043101;28;20044;-60
2024/01/24 06:03:52;;;;;;;1.67;0.40;;;;;;;11.13;100.00;97885.50;5036963;28;20131;-60
2024/01/24 06:06:19;;;;;;;3.47;0.57;;;;;;;11.19;100.00;97879.13;5057346;28;20040;-60
2024/01/24 06:08:46;;;;;;;1.77;0.40;;;;;;;11.10;100.00;97898.72;5050751;28;20099;-60
2024/01/24 06:11:14;;;;;;;1.42;0.40;;;;;;;11.16;100.00;97909.41;5040700;28;20063;-60
2024/01/24 06:13:41;;;;;;;1.10;0.30;;;;;;;11.21;100.00;97907.88;5046450;28;20407;-60
2024/01/24 06:16:08;;;;;;;1.00;0.43;;;;;;;11.22;100.00;97910.34;5048307;28;20075;-60
2024/01/24 06:18:35;;;;;;;0.88;0.20;;;;;;;11.13;100.00;97912.59;5045069;28;20037;-60
2024/01/24 06:21:02;;;;;;;0.88;0.30;;;;;;;11.01;100.00;97901.81;5049533;28;20041;-60
2024/01/24 06:23:28;;;;;;;1.48;0.32;;;;;;;11.11;100.00;97908.50;5050476;28;20070;-59
2024/01/24 06:25:55;;;;;;;0.90;0.32;;;;;;;11.09;100.00;97907.94;5040619;28;20052;-59
2024/01/24 06:28:21;;;;;;;0.75;0.30;;;;;;;10.95;100.00;97907.38;5048235;28;20053;-60
2024/01/24 06:30:48;;;;;;;0.85;0.40;;;;;;;10.95;100.00;97894.66;5058719;28;20037;-59
2024/01/24 06:33:14;;;;;;;0.63;0.30;;;;;;;10.90;100.00;97897.25;5048610;28;20041;-62
2024/01/24 06:35:41;;;;;;;1.20;0.50;;;;;;;10.87;100.00;97900.47;5056423;28;20047;-60
2024/01/24 06:38:07;;;;;;;0.17;0.17;;;;;;;10.89;100.00;97903.75;5047213;28;20048;-61
2024/01/24 06:40:34;;;;;;;2.03;0.50;;;;;;;10.91;100.00;97898.91;5052112;28;20044;-61
2024/01/24 06:43:00;;;;;;;1.38;0.45;;;;;;;10.93;100.00;97891.38;5047447;28;20037;-61
2024/01/24 06:45:28;;;;;;;2.03;1.00;;;;;;;10.90;100.00;97905.38;5046497;28;20045;-61
2024/01/24 06:47:54;;;;;;;1.20;0.63;;;;;;;10.92;100.00;97895.13;5039885;28;20048;-64
2024/01/24 06:50:21;;;;;;;3.67;1.10;;;;;;;10.86;100.00;97896.91;5049928;28;21873;-64
2024/01/24 06:52:48;;;;;;;3.22;2.05;;;;;;;10.84;100.00;97900.94;5045533;28;20057;-64
2024/01/24 06:55:16;;;;;;;0.77;0.30;;;;;;;10.90;100.00;97913.50;5042902;28;20051;-64
2024/01/24 06:57:44;;;;;;;1.35;0.50;;;;;;;10.90;100.00;97903.50;5040890;28;20520;-64
2024/01/24 07:00:11;;;;;;;2.30;1.30;;;;;;;10.88;100.00;97897.50;5044793;28;20599;-64
2024/01/24 07:02:37;;;;;;;1.60;0.93;;;;;;;10.86;100.00;97898.78;5053395;28;20109;-64
2024/01/24 07:05:05;;;;;;;0.65;0.40;;;;;;;10.92;100.00;97895.94;5039494;28;20037;-63
2024/01/24 07:07:32;;;;;;;7.43;1.48;;;;;;;10.98;100.00;97882.53;5053359;28;20047;-64
2024/01/24 07:09:59;;;;;;;1.92;0.60;;;;;;;10.84;100.00;97879.28;5050078;28;20046;-64
2024/01/24 07:12:25;;;;;;;1.90;0.50;;;;;;;10.91;100.00;97882.66;5044674;28;20064;-64
2024/01/24 07:14:52;;;;;;;0.73;0.30;;;;;;;10.92;100.00;97878.88;5047964;28;20052;-64
2024/01/24 07:17:20;;;;;;;1.20;0.43;;;;;;;10.89;100.00;97882.91;5047350;28;20086;-64
2024/01/24 07:19:47;;;;;;;1.63;0.60;;;;;;;10.85;100.00;97873.63;5056287;28;20055;-64
2024/01/24 07:22:15;;;;;;;0.60;0.43;;;;;;;10.93;100.00;97875.94;5049099;28;20709;-64
2024/01/24 07:24:44;;;;;;;1.27;0.60;;;;;;;11.02;100.00;97873.66;5037503;28;20146;-64
2024/01/24 07:27:11;;;;;;;1.80;0.57;;;;;;;10.95;100.00;97899.25;5041035;28;20642;-64
2024/01/24 07:29:38;;;;;;;0.52;0.30;;;;;;;10.95;100.00;97910.94;5050157;28;20491;-64
2024/01/24 07:32:05;;;;;;;1.00;0.50;;;;;;;10.95;100.00;97910.94;5042676;28;20041;-64
2024/01/24 07:34:32;;;;;;;0.60;0.30;;;;;;;10.94;100.00;97906.53;5041829;28;20037;-64
2024/01/24 07:36:58;;;;;;;1.52;0.52;;;;;;;10.97;100.00;97908.78;5040575;28;20040;-64
2024/01/24 07:39:25;;;;;;;2.05;0.30;;;;;;;11.03;100.00;97904.28;5045761;28;20048;-63
2024/01/24 07:41:52;;;;;;;0.20;0.20;;;;;;;11.00;100.00;97900.19;5045478;28;20416;-63
2024/01/24 07:44:19;;;;;;;0.57;0.40;;;;;;;10.99;100.00;97890.38;5045420;28;20053;-63
2024/01/24 07:46:46;;;;;;;1.35;0.30;;;;;;;11.00;100.00;97919.16;5040699;28;20040;-63
2024/01/24 07:49:13;;;;;;;1.80;1.02;;;;;;;10.93;100.00;97913.03;5040402;28;20049;-63
2024/01/24 07:51:46;;;;;;;1.58;0.98;;;;;;;10.89;100.00;97909.16;5041789;28;20040;-63
2024/01/24 07:54:13;;;;;;;0.45;0.32;;;;;;;10.91;100.00;97909.75;5037402;28;20346;-64
2024/01/24 07:56:42;;;;;;;1.05;0.50;;;;;;;10.95;100.00;97910.94;5041810;28;20531;-63
2024/01/24 07:59:08;;;;;;;1.35;0.70;;;;;;;10.96;100.00;97920.69;5045369;28;20591;-63
2024/01/24 08:01:35;;;;;;;5.28;2.80;;;;;;;11.00;100.00;97921.84;5043729;28;20037;-64
2024/01/24 08:04:03;;;;;;;0.30;0.30;;;;;;;11.08;100.00;97927.94;5041275;28;20060;-63
2024/01/24 08:06:30;;;;;;;1.50;0.38;;;;;;;11.10;100.00;97909.56;5033319;28;20047;-63
2024/01/24 08:08:57;;;;;;;1.30;0.82;;;;;;;11.02;100.00;97927.84;5036299;28;20412;-63
2024/01/24 08:11:24;;;;;;;1.17;0.45;;;;;;;11.05;100.00;97940.09;5030409;28;20084;-63
2024/01/24 08:13:51;;;;;;;2.10;0.40;;;;;;;11.05;100.00;97956.34;5039236;28;20288;-63
2024/01/24 08:16:18;;;;;;;0.43;0.30;;;;;;;11.05;100.00;97948.22;5026244;28;20037;-63
2024/01/24 08:18:45;;;;;;;0.77;0.38;;;;;;;11.07;100.00;97948.81;5039885;28;20421;-64
2024/01/24 08:21:12;;;;;;;2.45;0.30;;;;;;;11.16;100.00;97954.66;5037536;28;20044;-64
2024/01/24 08:23:38;;;;;;;0.47;0.30;;;;;;;11.14;100.00;97952.22;5038318;28;20044;-64
2024/01/24 08:26:16;;;;;;;0.45;0.32;;;;;;;11.21;100.00;97951.22;5034580;28;20037;-42
2024/01/24 08:28:43;;;;;;;5.47;2.53;;;;;;;11.29;100.00;97951.69;5041647;28;20045;-50
2024/01/24 08:31:11;;;;;;;0.77;0.30;;;;;;;11.29;100.00;97951.69;5029242;28;20141;-50
2024/01/24 08:33:37;;;;;;;2.47;0.40;;;;;;;11.34;100.00;97936.53;5045220;28;20056;-47
2024/01/24 08:36:04;;;;;;;6.38;2.22;;;;;;;11.28;100.00;97952.72;5040178;28;20075;-52
2024/01/24 08:38:31;;;;;;;0.50;0.15;;;;;;;11.34;100.00;97961.78;5037205;28;20551;-63
2024/01/24 08:40:57;;;;;;;0.93;0.30;;;;;;;11.29;100.00;97956.28;5033269;28;20124;-64
2024/01/24 08:43:24;;;;;;;0.85;0.40;;;;;;;11.40;100.00;97981.69;5034343;28;20057;-65
2024/01/24 08:45:50;;;;;;;2.28;0.70;;;;;;;11.37;100.00;97961.31;5031899;28;20045;-63
2024/01/24 08:48:17;;;;;;;0.45;0.17;;;;;;;11.42;100.00;97957.84;5033569;28;20055;-64
2024/01/24 08:50:45;;;;;;;0.60;0.20;;;;;;;11.41;100.00;97954.34;5033056;28;20044;-64
2024/01/24 08:53:11;;;;;;;0.45;0.15;;;;;;;11.42;100.00;97936.16;5034984;28;20044;-64
2024/01/24 08:55:38;;;;;;;2.05;0.35;;;;;;;11.44;100.00;97932.16;5038049;28;20107;-64
2024/01/24 08:58:05;;;;;;;1.00;0.40;;;;;;;11.35;100.00;97935.50;5043346;28;20067;-64
2024/01/24 09:00:31;;;;;;;0.47;0.20;;;;;;;11.41;100.00;97937.22;5048306;28;20863;-64
2024/01/24 09:02:58;;;;;;;1.23;0.60;;;;;;;11.51;100.00;97956.41;5045599;28;20044;-64
2024/01/24 09:05:25;;;;;;;0.95;0.40;;;;;;;11.43;100.00;97952.19;5034139;28;20053;-64
2024/01/24 09:07:52;;;;;;;1.30;0.30;;;;;;;11.52;100.00;97954.50;5029527;28;20048;-64
2024/01/24 09:10:19;;;;;;;0.77;0.22;;;;;;;11.50;100.00;97960.16;5036735;28;20037;-63
2024/01/24 09:12:46;;;;;;;1.45;0.40;;;;;;;11.40;100.00;97976.25;5045548;28;20045;-64
2024/01/24 09:15:13;;;;;;;0.65;0.10;;;;;;;11.41;100.00;97980.59;5031329;28;20072;-64
2024/01/24 09:17:40;;;;;;;0.13;0.10;;;;;;;11.45;100.00;97976.34;5035931;28;20102;-64
2024/01/24 09:20:07;;;;;;;0.10;0.05;;;;;;;11.35;100.00;97978.88;5031542;28;20086;-64
2024/01/24 09:22:34;;;;;;;0.20;0.10;;;;;;;11.37;100.00;97974.03;5037479;28;20048;-64
2024/01/24 09:25:01;;;;;;;0.30;0.10;;;;;;;11.38;100.00;97962.94;5032566;28;20067;-64
2024/01/24 09:27:33;;;;;;;1.20;0.10;;;;;;;11.30;100.00;97974.16;5037425;28;20099;-64
2024/01/24 09:30:00;;;;;;;0.98;0.17;;;;;;;11.24;100.00;97969.72;5032543;28;20041;-64
2024/01/24 09:32:27;;;;;;;0.15;0.10;;;;;;;11.15;100.00;97969.28;5039290;28;20132;-64
2024/01/24 09:34:54;;;;;;;0.88;0.32;;;;;;;11.14;100.00;97973.06;5038311;28;20041;-63
2024/01/24 09:37:21;;;;;;;0.20;0.10;;;;;;;11.19;100.00;97973.16;5029364;28;20175;-64
2024/01/24 09:39:48;;;;;;;0.85;0.15;;;;;;;11.32;100.00;97969.34;5032246;28;20049;-64
2024/01/24 09:42:20;;;;;;;0.25;0.13;;;;;;;11.32;100.00;97964.72;5030545;28;20044;-64
2024/01/24 09:44:51;;;;;;;0.45;0.10;;;;;;;11.41;100.00;97940.78;5038275;28;20615;-65
2024/01/24 09:47:23;;;;;;;0.10;0.00;;;;;;;11.41;100.00;97946.19;5037636;28;20043;-63
2024/01/24 09:49:50;;;;;;;0.30;0.10;;;;;;;11.50;100.00;97938.47;5039913;28;20111;-63
2024/01/24 09:52:19;;;;;;;0.43;0.10;;;;;;;11.66;100.00;97942.28;5038657;28;20086;-64
2024/01/24 09:54:46;;;;;;;1.10;0.45;;;;;;;11.77;100.00;97950.59;5036297;28;20051;-65
2024/01/24 09:57:12;;;;;;;1.40;0.28;;;;;;;11.80;100.00;97942.78;5035937;28;20041;-64
2024/01/24 09:59:39;;;;;;;0.20;0.10;;;;;;;11.84;100.00;97957.50;5029761;28;20064;-65
2024/01/24 10:02:07;;;;;;;0.82;0.20;;;;;;;11.78;100.00;97953.06;5035856;28;20124;-65
2024/01/24 10:04:37;;;;;;;0.47;0.15;;;;;;;11.79;100.00;97968.28;5032565;28;20049;-65
2024/01/24 10:07:07;;;;;;;0.50;0.10;;;;;;;11.94;100.00;97962.28;5038352;28;20056;-65
2024/01/24 10:09:34;;;;;;;0.00;0.00;;;;;;;11.91;100.00;97973.63;5039035;28;20492;-63
2024/01/24 10:12:00;;;;;;;0.52;0.10;;;;;;;11.90;100.00;97990.16;5034279;28;20114;-64
2024/01/24 10:14:28;;;;;;;0.57;0.20;;;;;;;11.88;100.00;97970.59;5039289;28;20049;-64
2024/01/24 10:16:55;;;;;;;0.00;0.00;;;;;;;11.92;100.00;97963.59;5027599;28;20037;-64
2024/01/24 10:19:27;;;;;;;0.20;0.10;;;;;;;12.00;100.00;97965.91;5039892;28;20649;-64
2024/01/24 10:21:54;;;;;;;0.50;0.10;;;;;;;12.07;100.00;97965.75;5033612;28;20111;-64
2024/01/24 10:24:22;;;;;;;0.25;0.10;;;;;;;12.17;100.00;97978.69;5040607;28;20048;-64
2024/01/24 10:26:48;;;;;;;0.20;0.10;;;;;;;12.26;100.00;97982.63;5040812;28;20041;-64
2024/01/24 10:29:15;;;;;;;0.10;0.10;;;;;;;12.41;100.00;97987.47;5042136;28;20538;-65
2024/01/24 10:31:42;;;;;;;0.57;0.20;;;;;;;12.48;100.00;98003.59;5035175;28;20555;-64
2024/01/24 10:34:09;;;;;;;0.28;0.00;;;;;;;12.46;100.00;98008.47;5031586;28;20045;-64
2024/01/24 10:36:38;;;;;;;0.45;0.10;;;;;;;12.18;100.00;98004.75;5025843;28;20053;-65
2024/01/24 10:39:12;;;;;;;0.00;0.00;;;;;;;12.06;100.00;97994.00;5034970;28;20052;-64
2024/01/24 10:41:44;;;;;;;0.05;0.00;;;;;;;12.14;100.00;98017.19;5026237;28;20128;-64
2024/01/24 10:44:16;;;;;;;0.10;0.08;;;;;;;12.35;100.00;98004.78;5031730;28;20102;-63
2024/01/24 10:46:43;;;;;;;0.10;0.00;;;;;;;12.45;100.00;98013.06;5036632;28;20560;-64
2024/01/24 10:49:13;;;;;;;0.90;0.20;;;;;;;12.45;100.00;98042.09;5040176;28;20045;-63
2024/01/24 10:51:42;;;;;;;0.82;0.10;;;;;;;12.54;100.00;98008.03;5040556;28;20444;-64
2024/01/24 10:54:12;;;;;;;0.70;0.10;;;;;;;12.55;100.00;98015.09;5034005;28;20239;-63
2024/01/24 10:56:40;;;;;;;0.90;0.10;;;;;;;12.36;100.00;98026.22;5035488;28;20044;-64
2024/01/24 10:59:08;;;;;;;4.93;1.70;;;;;;;12.01;100.00;98021.03;5030722;28;20041;-64
2024/01/24 11:01:34;;;;;;;4.93;2.33;;;;;;;11.70;100.00;98041.13;5026063;28;20050;-63
2024/01/24 11:04:04;;;;;;;1.38;0.47;;;;;;;11.46;100.00;98034.94;5035984;28;20048;-64
2024/01/24 11:06:57;;;;;;;4.72;1.83;;;;;;;11.26;100.00;98041.63;5026521;28;20128;-65
2024/01/24 11:09:40;;;;;;;3.53;1.27;;;;;;;11.24;100.00;98032.88;5034469;28;20049;-64
2024/01/24 11:12:08;;;;;;;0.22;0.20;;;;;;;11.30;100.00;98036.53;5028224;28;20523;-64
2024/01/24 11:14:36;;;;;;;2.92;1.27;;;;;;;11.22;100.00;98034.19;5041497;28;20056;-64
2024/01/24 11:17:03;;;;;;;2.33;0.52;;;;;;;11.09;100.00;98052.38;5029178;28;20042;-64
2024/01/24 11:19:31;;;;;;;2.10;0.30;;;;;;;10.98;100.00;98045.91;5034007;28;20068;-65
2024/01/24 11:22:04;;;;;;;1.83;0.50;;;;;;;10.91;100.00;98053.34;5035858;28;20060;-64
2024/01/24 11:24:44;;;;;;;0.17;0.17;;;;;;;10.79;100.00;98056.06;5025173;28;20122;-65
2024/01/24 11:27:33;;;;;;;1.58;0.47;;;;;;;10.64;100.00;98043.81;5034140;28;20041;-64
2024/01/24 11:30:17;;;;;;;0.52;0.20;;;;;;;10.61;100.00;98041.56;5030697;28;20041;-65